sensor_id;sensor_type;location;lat;lon;timestamp;pressure;altitude;pressure_sealevel;temperature;humidity
77583;BME280;66726;52.388;9.986;2023-07-20T00:00:27;100639.13;;;18.49;62.13
77583;BME280;66726;52.388;9.986;2023-07-20T00:03:13;100638.59;;;18.34;62.33
77583;BME280;66726;52.388;9.986;2023-07-20T00:05:50;100643.16;;;18.34;62.60
77583;BME280;66726;52.388;9.986;2023-07-20T00:08:22;100645.69;;;18.35;62.80
77583;BME280;66726;52.388;9.986;2023-07-20T00:10:56;100650.88;;;18.37;62.77
77583;BME280;66726;52.388;9.986;2023-07-20T00:13:27;100643.00;;;18.29;63.08
77583;BME280;66726;52.388;9.986;2023-07-20T00:15:59;100643.22;;;18.14;63.59
77583;BME280;66726;52.388;9.986;2023-07-20T00:18:31;100635.31;;;18.06;63.91
77583;BME280;66726;52.388;9.986;2023-07-20T00:21:03;100638.84;;;18.06;63.88
77583;BME280;66726;52.388;9.986;2023-07-20T00:23:35;100635.56;;;17.98;64.31
77583;BME280;66726;52.388;9.986;2023-07-20T00:26:08;100627.81;;;17.95;64.18
77583;BME280;66726;52.388;9.986;2023-07-20T00:28:40;100624.94;;;17.90;64.27
77583;BME280;66726;52.388;9.986;2023-07-20T00:31:12;100634.94;;;17.89;64.51
77583;BME280;66726;52.388;9.986;2023-07-20T00:33:44;100635.94;;;17.95;64.70
77583;BME280;66726;52.388;9.986;2023-07-20T00:36:16;100635.75;;;17.90;64.78
77583;BME280;66726;52.388;9.986;2023-07-20T00:38:48;100632.22;;;17.89;64.61
77583;BME280;66726;52.388;9.986;2023-07-20T00:41:21;100624.94;;;17.83;64.21
77583;BME280;66726;52.388;9.986;2023-07-20T00:43:54;100629.50;;;17.89;64.04
77583;BME280;66726;52.388;9.986;2023-07-20T00:46:27;100631.59;;;17.87;63.67
77583;BME280;66726;52.388;9.986;2023-07-20T00:49:01;100625.38;;;17.80;65.05
77583;BME280;66726;52.388;9.986;2023-07-20T00:51:33;100624.53;;;17.86;64.58
77583;BME280;66726;52.388;9.986;2023-07-20T00:54:05;100615.38;;;17.81;64.38
77583;BME280;66726;52.388;9.986;2023-07-20T00:56:41;100622.00;;;17.85;64.47
77583;BME280;66726;52.388;9.986;2023-07-20T00:59:14;100624.94;;;17.83;64.04
77583;BME280;66726;52.388;9.986;2023-07-20T01:01:47;100620.78;;;17.87;64.48
77583;BME280;66726;52.388;9.986;2023-07-20T01:04:20;100621.59;;;17.74;64.84
77583;BME280;66726;52.388;9.986;2023-07-20T01:07:00;100627.00;;;17.74;64.58
77583;BME280;66726;52.388;9.986;2023-07-20T01:09:42;100612.25;;;17.70;64.07
77583;BME280;66726;52.388;9.986;2023-07-20T01:12:22;100624.97;;;17.63;64.98
77583;BME280;66726;52.388;9.986;2023-07-20T01:14:57;100625.34;;;17.60;64.37
77583;BME280;66726;52.388;9.986;2023-07-20T01:17:29;100612.66;;;17.67;64.84
77583;BME280;66726;52.388;9.986;2023-07-20T01:20:01;100619.13;;;17.60;64.90
77583;BME280;66726;52.388;9.986;2023-07-20T01:23:00;100633.47;;;17.60;64.37
77583;BME280;66726;52.388;9.986;2023-07-20T01:26:02;100624.91;;;17.44;65.34
77583;BME280;66726;52.388;9.986;2023-07-20T01:29:01;100626.16;;;17.41;65.31
77583;BME280;66726;52.388;9.986;2023-07-20T01:31:43;100624.06;;;17.43;64.75
77583;BME280;66726;52.388;9.986;2023-07-20T01:34:22;100626.78;;;17.37;65.80
77583;BME280;66726;52.388;9.986;2023-07-20T01:36:56;100628.69;;;17.36;65.36
77583;BME280;66726;52.388;9.986;2023-07-20T01:39:29;100629.28;;;17.45;65.47
77583;BME280;66726;52.388;9.986;2023-07-20T01:42:02;100632.81;;;17.26;65.85
77583;BME280;66726;52.388;9.986;2023-07-20T01:44:34;100632.81;;;17.26;65.22
77583;BME280;66726;52.388;9.986;2023-07-20T01:47:08;100624.28;;;17.22;66.08
77583;BME280;66726;52.388;9.986;2023-07-20T01:49:39;100626.34;;;17.20;66.04
77583;BME280;66726;52.388;9.986;2023-07-20T01:52:11;100633.00;;;17.17;65.75
77583;BME280;66726;52.388;9.986;2023-07-20T01:54:43;100620.31;;;17.18;65.68
77583;BME280;66726;52.388;9.986;2023-07-20T01:57:15;100624.28;;;17.22;66.38
77583;BME280;66726;52.388;9.986;2023-07-20T01:59:49;100623.66;;;17.27;65.42
77583;BME280;66726;52.388;9.986;2023-07-20T02:02:23;100628.22;;;17.19;65.81
77583;BME280;66726;52.388;9.986;2023-07-20T02:04:55;100624.28;;;17.22;65.70
77583;BME280;66726;52.388;9.986;2023-07-20T02:07:27;100623.63;;;17.13;66.07
77583;BME280;66726;52.388;9.986;2023-07-20T02:09:59;100618.03;;;17.15;66.31
77583;BME280;66726;52.388;9.986;2023-07-20T02:12:31;100632.75;;;16.99;65.93
77583;BME280;66726;52.388;9.986;2023-07-20T02:15:03;100627.75;;;16.96;67.65
77583;BME280;66726;52.388;9.986;2023-07-20T02:17:36;100636.25;;;16.87;67.61
77583;BME280;66726;52.388;9.986;2023-07-20T02:20:12;100635.03;;;16.89;67.29
77583;BME280;66726;52.388;9.986;2023-07-20T02:22:44;100629.41;;;16.91;67.00
77583;BME280;66726;52.388;9.986;2023-07-20T02:25:16;100628.59;;;16.97;67.71
77583;BME280;66726;52.388;9.986;2023-07-20T02:27:48;100629.00;;;16.94;67.07
77583;BME280;66726;52.388;9.986;2023-07-20T02:30:19;100623.81;;;16.99;67.33
77583;BME280;66726;52.388;9.986;2023-07-20T02:32:53;100628.59;;;16.97;67.33
77583;BME280;66726;52.388;9.986;2023-07-20T02:35:25;100626.91;;;16.96;67.98
77583;BME280;66726;52.388;9.986;2023-07-20T02:37:57;100627.56;;;16.98;66.92
77583;BME280;66726;52.388;9.986;2023-07-20T02:40:29;100632.31;;;16.96;67.48
77583;BME280;66726;52.388;9.986;2023-07-20T02:43:01;100628.59;;;16.97;66.91
77583;BME280;66726;52.388;9.986;2023-07-20T02:45:33;100636.50;;;16.92;68.41
77583;BME280;66726;52.388;9.986;2023-07-20T02:48:06;100636.03;;;16.82;68.04
77583;BME280;66726;52.388;9.986;2023-07-20T02:50:38;100633.13;;;16.77;69.00
77583;BME280;66726;52.388;9.986;2023-07-20T02:53:10;100636.88;;;16.82;68.40
77583;BME280;66726;52.388;9.986;2023-07-20T02:55:42;100638.53;;;16.77;69.39
77583;BME280;66726;52.388;9.986;2023-07-20T02:58:14;100642.03;;;16.70;68.36
77583;BME280;66726;52.388;9.986;2023-07-20T03:00:46;100646.63;;;16.70;69.44
77583;BME280;66726;52.388;9.986;2023-07-20T03:03:19;100635.19;;;16.75;68.80
77583;BME280;66726;52.388;9.986;2023-07-20T03:05:51;100639.13;;;16.79;69.31
77583;BME280;66726;52.388;9.986;2023-07-20T03:08:25;100637.28;;;16.79;69.33
77583;BME280;66726;52.388;9.986;2023-07-20T03:10:56;100645.19;;;16.81;69.02
77583;BME280;66726;52.388;9.986;2023-07-20T03:13:28;100650.78;;;16.72;69.35
77583;BME280;66726;52.388;9.986;2023-07-20T03:16:01;100640.19;;;16.71;69.96
77583;BME280;66726;52.388;9.986;2023-07-20T03:18:34;100643.47;;;16.66;69.38
77583;BME280;66726;52.388;9.986;2023-07-20T03:21:07;100652.63;;;16.65;69.51
77583;BME280;66726;52.388;9.986;2023-07-20T03:23:39;100645.13;;;16.61;70.13
77583;BME280;66726;52.388;9.986;2023-07-20T03:26:12;100645.94;;;16.61;70.55
77583;BME280;66726;52.388;9.986;2023-07-20T03:28:44;100638.66;;;16.55;70.43
77583;BME280;66726;52.388;9.986;2023-07-20T03:31:16;100632.59;;;16.53;70.74
77583;BME280;66726;52.388;9.986;2023-07-20T03:33:49;100637.56;;;16.50;70.77
77583;BME280;66726;52.388;9.986;2023-07-20T03:36:21;100636.13;;;16.54;70.44
77583;BME280;66726;52.388;9.986;2023-07-20T03:38:53;100636.72;;;16.49;70.46
77583;BME280;66726;52.388;9.986;2023-07-20T03:41:26;100639.19;;;16.51;70.20
77583;BME280;66726;52.388;9.986;2023-07-20T03:44:00;100634.63;;;16.51;70.49
77583;BME280;66726;52.388;9.986;2023-07-20T03:46:32;100631.94;;;16.51;70.40
77583;BME280;66726;52.388;9.986;2023-07-20T03:49:06;100636.50;;;16.51;70.61
77583;BME280;66726;52.388;9.986;2023-07-20T03:51:39;100639.03;;;16.52;70.06
77583;BME280;66726;52.388;9.986;2023-07-20T03:54:11;100640.94;;;16.58;69.03
77583;BME280;66726;52.388;9.986;2023-07-20T03:56:43;100636.38;;;16.59;70.01
77583;BME280;66726;52.388;9.986;2023-07-20T03:59:15;100637.22;;;16.59;69.23
77583;BME280;66726;52.388;9.986;2023-07-20T04:01:47;100637.22;;;16.59;69.44
77583;BME280;66726;52.388;9.986;2023-07-20T04:04:21;100637.22;;;16.59;69.83
77583;BME280;66726;52.388;9.986;2023-07-20T04:06:52;100642.63;;;16.59;70.27
77583;BME280;66726;52.388;9.986;2023-07-20T04:09:24;100642.19;;;16.56;70.80
77583;BME280;66726;52.388;9.986;2023-07-20T04:11:56;100644.06;;;16.55;69.98
77583;BME280;66726;52.388;9.986;2023-07-20T04:14:28;100644.06;;;16.55;70.37
77583;BME280;66726;52.388;9.986;2023-07-20T04:17:00;100644.69;;;16.57;70.30
77583;BME280;66726;52.388;9.986;2023-07-20T04:19:33;100645.03;;;16.54;71.16
77583;BME280;66726;52.388;9.986;2023-07-20T04:22:05;100639.28;;;16.57;71.27
77583;BME280;66726;52.388;9.986;2023-07-20T04:24:37;100644.69;;;16.57;70.94
77583;BME280;66726;52.388;9.986;2023-07-20T04:27:09;100638.25;;;16.58;70.44
77583;BME280;66726;52.388;9.986;2023-07-20T04:29:41;100644.06;;;16.55;71.02
77583;BME280;66726;52.388;9.986;2023-07-20T04:32:13;100641.53;;;16.54;70.93
77583;BME280;66726;52.388;9.986;2023-07-20T04:34:46;100652.34;;;16.54;70.49
77583;BME280;66726;52.388;9.986;2023-07-20T04:37:18;100656.47;;;16.50;70.59
77583;BME280;66726;52.388;9.986;2023-07-20T04:39:50;100662.50;;;16.52;70.66
77583;BME280;66726;52.388;9.986;2023-07-20T04:42:22;100656.06;;;16.53;71.19
77583;BME280;66726;52.388;9.986;2023-07-20T04:44:54;100666.03;;;16.52;71.70
77583;BME280;66726;52.388;9.986;2023-07-20T04:47:26;100670.81;;;16.50;71.68
77583;BME280;66726;52.388;9.986;2023-07-20T04:49:59;100664.16;;;16.46;72.96
77583;BME280;66726;52.388;9.986;2023-07-20T04:52:31;100669.56;;;16.46;74.26
77583;BME280;66726;52.388;9.986;2023-07-20T04:55:12;100669.56;;;16.46;74.86
77583;BME280;66726;52.388;9.986;2023-07-20T04:57:44;100678.47;;;16.40;76.38
77583;BME280;66726;52.388;9.986;2023-07-20T05:00:18;100673.44;;;16.37;75.79
77583;BME280;66726;52.388;9.986;2023-07-20T05:02:52;100676.56;;;16.41;75.67
77583;BME280;66726;52.388;9.986;2023-07-20T05:05:25;100675.13;;;16.38;76.13
77583;BME280;66726;52.388;9.986;2023-07-20T05:07:57;100672.81;;;16.35;76.13
77583;BME280;66726;52.388;9.986;2023-07-20T05:10:29;100674.94;;;16.40;76.15
77583;BME280;66726;52.388;9.986;2023-07-20T05:13:01;100679.63;;;16.31;76.65
77583;BME280;66726;52.388;9.986;2023-07-20T05:15:35;100674.88;;;16.33;76.42
77583;BME280;66726;52.388;9.986;2023-07-20T05:18:07;100682.75;;;16.28;75.93
77583;BME280;66726;52.388;9.986;2023-07-20T05:20:40;100688.50;;;16.18;77.44
77583;BME280;66726;52.388;9.986;2023-07-20T05:23:12;100685.13;;;16.10;77.48
77583;BME280;66726;52.388;9.986;2023-07-20T05:25:44;100679.91;;;16.08;77.08
77583;BME280;66726;52.388;9.986;2023-07-20T05:28:16;100691.31;;;16.04;76.60
77583;BME280;66726;52.388;9.986;2023-07-20T05:30:49;100688.81;;;16.02;77.50
77583;BME280;66726;52.388;9.986;2023-07-20T05:33:23;100695.63;;;15.98;77.97
77583;BME280;66726;52.388;9.986;2023-07-20T05:35:56;100701.38;;;15.89;78.66
77583;BME280;66726;52.388;9.986;2023-07-20T05:38:28;100699.06;;;15.86;79.62
77583;BME280;66726;52.388;9.986;2023-07-20T05:41:05;100702.94;;;15.77;79.79
77583;BME280;66726;52.388;9.986;2023-07-20T05:43:41;100701.13;;;15.84;79.25
77583;BME280;66726;52.388;9.986;2023-07-20T05:46:12;100702.81;;;15.85;79.29
77583;BME280;66726;52.388;9.986;2023-07-20T05:48:44;100706.13;;;15.87;78.49
77583;BME280;66726;52.388;9.986;2023-07-20T05:51:17;100699.88;;;15.86;79.17
77583;BME280;66726;52.388;9.986;2023-07-20T05:53:49;100700.34;;;15.90;79.97
77583;BME280;66726;52.388;9.986;2023-07-20T05:56:21;100708.81;;;15.87;79.38
77583;BME280;66726;52.388;9.986;2023-07-20T05:58:54;100698.69;;;15.89;80.05
77583;BME280;66726;52.388;9.986;2023-07-20T06:01:25;100712.81;;;15.91;79.52
77583;BME280;66726;52.388;9.986;2023-07-20T06:03:58;100714.50;;;15.92;79.26
77583;BME280;66726;52.388;9.986;2023-07-20T06:06:32;100721.94;;;15.90;79.90
77583;BME280;66726;52.388;9.986;2023-07-20T06:09:04;100721.50;;;15.86;79.18
77583;BME280;66726;52.388;9.986;2023-07-20T06:11:41;100716.53;;;15.90;79.89
77583;BME280;66726;52.388;9.986;2023-07-20T06:14:13;100716.03;;;15.80;81.22
77583;BME280;66726;52.388;9.986;2023-07-20T06:16:45;100720.84;;;15.84;80.13
77583;BME280;66726;52.388;9.986;2023-07-20T06:19:18;100722.22;;;15.73;81.14
77583;BME280;66726;52.388;9.986;2023-07-20T06:21:51;100716.03;;;15.80;81.41
77583;BME280;66726;52.388;9.986;2023-07-20T06:24:23;100714.84;;;15.82;81.46
77583;BME280;66726;52.388;9.986;2023-07-20T06:26:55;100707.81;;;15.88;81.65
77583;BME280;66726;52.388;9.986;2023-07-20T06:29:26;100715.25;;;15.86;81.64
77583;BME280;66726;52.388;9.986;2023-07-20T06:31:58;100714.22;;;15.87;81.39
77583;BME280;66726;52.388;9.986;2023-07-20T06:34:30;100719.63;;;15.87;81.68
77583;BME280;66726;52.388;9.986;2023-07-20T06:37:08;100705.28;;;15.86;81.69
77583;BME280;66726;52.388;9.986;2023-07-20T06:39:40;100713.34;;;15.80;82.47
77583;BME280;66726;52.388;9.986;2023-07-20T06:42:15;100714.88;;;15.89;81.62
77583;BME280;66726;52.388;9.986;2023-07-20T06:44:47;100720.34;;;15.95;81.50
77583;BME280;66726;52.388;9.986;2023-07-20T06:47:19;100709.34;;;15.76;81.63
77583;BME280;66726;52.388;9.986;2023-07-20T06:49:51;100719.34;;;15.75;82.81
77583;BME280;66726;52.388;9.986;2023-07-20T06:52:24;100730.19;;;15.82;81.95
77583;BME280;66726;52.388;9.986;2023-07-20T06:54:56;100737.13;;;15.91;81.94
77583;BME280;66726;52.388;9.986;2023-07-20T06:57:32;100735.94;;;16.00;82.37
77583;BME280;66726;52.388;9.986;2023-07-20T07:00:03;100740.84;;;15.90;82.75
77583;BME280;66726;52.388;9.986;2023-07-20T07:02:37;100742.47;;;15.84;81.57
77583;BME280;66726;52.388;9.986;2023-07-20T07:05:10;100748.69;;;15.85;82.39
77583;BME280;66726;52.388;9.986;2023-07-20T07:07:48;100749.72;;;15.84;80.68
77583;BME280;66726;52.388;9.986;2023-07-20T07:10:20;100744.25;;;15.77;81.78
77583;BME280;66726;52.388;9.986;2023-07-20T07:12:52;100752.03;;;15.65;82.07
77583;BME280;66726;52.388;9.986;2023-07-20T07:15:24;100747.75;;;15.71;80.39
77583;BME280;66726;52.388;9.986;2023-07-20T07:17:56;100748.03;;;15.83;80.60
77583;BME280;66726;52.388;9.986;2023-07-20T07:20:29;100745.59;;;15.88;80.14
77583;BME280;66726;52.388;9.986;2023-07-20T07:23:03;100747.13;;;15.97;80.35
77583;BME280;66726;52.388;9.986;2023-07-20T07:25:34;100738.25;;;16.03;80.68
77583;BME280;66726;52.388;9.986;2023-07-20T07:28:06;100746.56;;;16.01;78.55
77583;BME280;66726;52.388;9.986;2023-07-20T07:30:38;100744.09;;;16.06;77.94
77583;BME280;66726;52.388;9.986;2023-07-20T07:33:10;100747.03;;;16.11;77.33
77583;BME280;66726;52.388;9.986;2023-07-20T07:35:43;100746.69;;;16.21;77.23
77583;BME280;66726;52.388;9.986;2023-07-20T07:38:16;100757.75;;;16.26;76.42
77583;BME280;66726;52.388;9.986;2023-07-20T07:41:08;100762.13;;;16.27;76.68
77583;BME280;66726;52.388;9.986;2023-07-20T07:43:40;100746.38;;;16.37;77.62
77583;BME280;66726;52.388;9.986;2023-07-20T07:46:12;100761.63;;;16.45;77.76
77583;BME280;66726;52.388;9.986;2023-07-20T07:48:44;100759.13;;;16.43;75.56
77583;BME280;66726;52.388;9.986;2023-07-20T07:51:16;100762.28;;;16.47;73.51
77583;BME280;66726;52.388;9.986;2023-07-20T07:53:50;100748.44;;;16.56;74.03
77583;BME280;66726;52.388;9.986;2023-07-20T07:56:22;100753.25;;;16.61;73.48
77583;BME280;66726;52.388;9.986;2023-07-20T07:58:57;100758.66;;;16.61;73.96
77583;BME280;66726;52.388;9.986;2023-07-20T08:01:29;100771.72;;;16.57;72.26
77583;BME280;66726;52.388;9.986;2023-07-20T08:04:01;100771.72;;;16.57;71.88
77583;BME280;66726;52.388;9.986;2023-07-20T08:06:34;100768.22;;;16.63;71.19
77583;BME280;66726;52.388;9.986;2023-07-20T08:09:07;100770.59;;;16.80;71.52
77583;BME280;66726;52.388;9.986;2023-07-20T08:11:40;100766.06;;;16.87;69.43
77583;BME280;66726;52.388;9.986;2023-07-20T08:14:12;100772.19;;;17.02;66.83
77583;BME280;66726;52.388;9.986;2023-07-20T08:16:44;100764.28;;;17.07;65.75
77583;BME280;66726;52.388;9.986;2023-07-20T08:19:16;100769.53;;;17.15;66.03
77583;BME280;66726;52.388;9.986;2023-07-20T08:21:48;100773.09;;;17.22;64.12
77583;BME280;66726;52.388;9.986;2023-07-20T08:24:21;100767.06;;;17.27;63.26
77583;BME280;66726;52.388;9.986;2023-07-20T08:26:53;100769.00;;;17.39;64.27
77583;BME280;66726;52.388;9.986;2023-07-20T08:29:26;100770.47;;;17.48;64.86
77583;BME280;66726;52.388;9.986;2023-07-20T08:31:58;100769.63;;;17.54;64.42
77583;BME280;66726;52.388;9.986;2023-07-20T08:34:30;100768.59;;;17.55;62.77
77583;BME280;66726;52.388;9.986;2023-07-20T08:37:02;100770.69;;;17.53;61.19
77583;BME280;66726;52.388;9.986;2023-07-20T08:39:35;100778.59;;;17.55;62.02
77583;BME280;66726;52.388;9.986;2023-07-20T08:42:09;100781.16;;;17.56;63.70
77583;BME280;66726;52.388;9.986;2023-07-20T08:44:43;100780.88;;;17.51;63.15
77583;BME280;66726;52.388;9.986;2023-07-20T08:47:17;100779.00;;;17.52;62.11
77583;BME280;66726;52.388;9.986;2023-07-20T08:49:53;100777.75;;;17.54;62.32
77583;BME280;66726;52.388;9.986;2023-07-20T08:52:26;100779.06;;;17.58;60.23
77583;BME280;66726;52.388;9.986;2023-07-20T08:54:59;100777.44;;;17.70;60.36
77583;BME280;66726;52.388;9.986;2023-07-20T08:57:35;100771.19;;;17.83;56.80
77583;BME280;66726;52.388;9.986;2023-07-20T09:00:08;100770.34;;;17.96;58.47
77583;BME280;66726;52.388;9.986;2023-07-20T09:02:43;100774.31;;;18.13;58.89
77583;BME280;66726;52.388;9.986;2023-07-20T09:05:16;100761.19;;;18.10;55.40
77583;BME280;66726;52.388;9.986;2023-07-20T09:07:50;100771.63;;;18.06;56.03
77583;BME280;66726;52.388;9.986;2023-07-20T09:10:24;100767.44;;;18.10;57.16
77583;BME280;66726;52.388;9.986;2023-07-20T09:12:57;100770.16;;;18.17;57.75
77583;BME280;66726;52.388;9.986;2023-07-20T09:15:31;100769.31;;;18.30;56.88
77583;BME280;66726;52.388;9.986;2023-07-20T09:18:05;100765.78;;;18.42;57.57
77583;BME280;66726;52.388;9.986;2023-07-20T09:20:37;100756.19;;;18.59;56.02
77583;BME280;66726;52.388;9.986;2023-07-20T09:23:09;100750.31;;;18.69;55.76
77583;BME280;66726;52.388;9.986;2023-07-20T09:25:44;100767.81;;;18.66;55.00
77583;BME280;66726;52.388;9.986;2023-07-20T09:28:16;100770.94;;;18.63;56.82
77583;BME280;66726;52.388;9.986;2023-07-20T09:30:48;100768.25;;;18.63;55.86
77583;BME280;66726;52.388;9.986;2023-07-20T09:33:26;100767.84;;;18.60;56.96
77583;BME280;66726;52.388;9.986;2023-07-20T09:36:03;100776.63;;;18.55;55.09
77583;BME280;66726;52.388;9.986;2023-07-20T09:38:55;100764.72;;;18.56;55.66
77583;BME280;66726;52.388;9.986;2023-07-20T09:41:31;100779.09;;;18.57;53.35
77583;BME280;66726;52.388;9.986;2023-07-20T09:44:17;100771.78;;;18.64;52.95
77583;BME280;66726;52.388;9.986;2023-07-20T09:46:54;100768.41;;;18.82;51.81
77583;BME280;66726;52.388;9.986;2023-07-20T09:49:29;100773.41;;;18.85;52.55
77583;BME280;66726;52.388;9.986;2023-07-20T09:52:21;100763.59;;;18.90;53.51
77583;BME280;66726;52.388;9.986;2023-07-20T09:54:57;100773.50;;;19.16;52.36
77583;BME280;66726;52.388;9.986;2023-07-20T09:57:31;100761.78;;;19.22;51.45
77583;BME280;66726;52.388;9.986;2023-07-20T10:00:05;100765.94;;;19.31;50.61
77583;BME280;66726;52.388;9.986;2023-07-20T10:02:48;100760.91;;;19.41;49.95
77583;BME280;66726;52.388;9.986;2023-07-20T10:05:23;100758.34;;;19.40;51.82
77583;BME280;66726;52.388;9.986;2023-07-20T10:07:57;100762.91;;;19.52;46.41
77583;BME280;66726;52.388;9.986;2023-07-20T10:10:33;100771.63;;;19.61;44.93
77583;BME280;66726;52.388;9.986;2023-07-20T10:13:08;100771.59;;;19.67;47.34
77583;BME280;66726;52.388;9.986;2023-07-20T10:15:50;100762.69;;;19.85;46.70
77583;BME280;66726;52.388;9.986;2023-07-20T10:18:28;100768.09;;;19.92;49.35
77583;BME280;66726;52.388;9.986;2023-07-20T10:21:03;100774.00;;;19.82;47.90
77583;BME280;66726;52.388;9.986;2023-07-20T10:23:41;100774.00;;;19.82;50.22
77583;BME280;66726;52.388;9.986;2023-07-20T10:26:15;100773.16;;;19.82;48.91
77583;BME280;66726;52.388;9.986;2023-07-20T10:28:48;100765.19;;;19.87;48.12
77583;BME280;66726;52.388;9.986;2023-07-20T10:31:22;100755.47;;;19.97;48.78
77583;BME280;66726;52.388;9.986;2023-07-20T10:33:54;100762.72;;;20.10;48.51
77583;BME280;66726;52.388;9.986;2023-07-20T10:36:31;100762.97;;;20.02;47.96
77583;BME280;66726;52.388;9.986;2023-07-20T10:39:02;100761.16;;;19.96;47.94
77583;BME280;66726;52.388;9.986;2023-07-20T10:41:41;100754.66;;;19.97;48.45
77583;BME280;66726;52.388;9.986;2023-07-20T10:44:15;100753.88;;;20.14;47.70
77583;BME280;66726;52.388;9.986;2023-07-20T10:46:51;100753.22;;;20.19;47.45
77583;BME280;66726;52.388;9.986;2023-07-20T10:49:30;100750.66;;;20.24;45.78
77583;BME280;66726;52.388;9.986;2023-07-20T10:52:08;100752.97;;;20.27;46.24
77583;BME280;66726;52.388;9.986;2023-07-20T10:54:51;100749.00;;;20.23;47.49
77583;BME280;66726;52.388;9.986;2023-07-20T10:57:34;100759.44;;;20.26;47.08
77583;BME280;66726;52.388;9.986;2023-07-20T11:00:22;100749.97;;;20.35;47.66
77583;BME280;66726;52.388;9.986;2023-07-20T11:03:02;100754.16;;;20.56;44.92
77583;BME280;66726;52.388;9.986;2023-07-20T11:05:41;100744.78;;;20.70;44.64
77583;BME280;66726;52.388;9.986;2023-07-20T11:08:16;100736.34;;;20.78;45.25
77583;BME280;66726;52.388;9.986;2023-07-20T11:11:25;100747.28;;;20.90;44.40
77583;BME280;66726;52.388;9.986;2023-07-20T11:14:01;100754.22;;;21.04;44.29
77583;BME280;66726;52.388;9.986;2023-07-20T11:16:44;100741.19;;;21.12;43.60
77583;BME280;66726;52.388;9.986;2023-07-20T11:19:21;100738.97;;;21.21;43.48
77583;BME280;66726;52.388;9.986;2023-07-20T11:21:59;100745.31;;;21.33;44.90
77583;BME280;66726;52.388;9.986;2023-07-20T11:24:37;100754.38;;;21.27;42.84
77583;BME280;66726;52.388;9.986;2023-07-20T11:27:10;100745.34;;;21.45;43.30
77583;BME280;66726;52.388;9.986;2023-07-20T11:29:41;100750.41;;;21.41;43.35
77583;BME280;66726;52.388;9.986;2023-07-20T11:32:22;100755.22;;;21.57;43.39
77583;BME280;66726;52.388;9.986;2023-07-20T11:34:54;100747.53;;;21.66;43.27
77583;BME280;66726;52.388;9.986;2023-07-20T11:37:26;100740.47;;;21.77;42.72
77583;BME280;66726;52.388;9.986;2023-07-20T11:39:59;100747.31;;;21.67;42.66
77583;BME280;66726;52.388;9.986;2023-07-20T11:42:31;100746.75;;;21.47;41.21
77583;BME280;66726;52.388;9.986;2023-07-20T11:45:09;100747.84;;;21.46;42.93
77583;BME280;66726;52.388;9.986;2023-07-20T11:47:45;100759.72;;;21.34;42.92
77583;BME280;66726;52.388;9.986;2023-07-20T11:50:16;100762.91;;;21.31;42.32
77583;BME280;66726;52.388;9.986;2023-07-20T11:52:48;100754.72;;;21.19;42.11
77583;BME280;66726;52.388;9.986;2023-07-20T11:55:20;100760.53;;;21.22;42.79
77583;BME280;66726;52.388;9.986;2023-07-20T11:58:06;100759.78;;;21.15;42.88
77583;BME280;66726;52.388;9.986;2023-07-20T12:00:40;100755.16;;;21.16;42.71
77583;BME280;66726;52.388;9.986;2023-07-20T12:03:17;100753.97;;;21.12;42.95
77583;BME280;66726;52.388;9.986;2023-07-20T12:05:49;100761.06;;;21.13;43.81
77583;BME280;66726;52.388;9.986;2023-07-20T12:08:31;100755.00;;;21.29;44.03
77583;BME280;66726;52.388;9.986;2023-07-20T12:11:03;100737.53;;;21.48;42.80
77583;BME280;66726;52.388;9.986;2023-07-20T12:13:44;100743.13;;;21.53;42.50
77583;BME280;66726;52.388;9.986;2023-07-20T12:16:20;100736.31;;;21.44;41.33
77583;BME280;66726;52.388;9.986;2023-07-20T12:19:02;100744.19;;;21.52;42.72
77583;BME280;66726;52.388;9.986;2023-07-20T12:21:37;100736.78;;;21.41;42.69
77583;BME280;66726;52.388;9.986;2023-07-20T12:24:10;100735.41;;;21.50;43.17
77583;BME280;66726;52.388;9.986;2023-07-20T12:26:44;100746.91;;;21.52;43.17
77583;BME280;66726;52.388;9.986;2023-07-20T12:29:16;100739.38;;;21.66;41.90
77583;BME280;66726;52.388;9.986;2023-07-20T12:31:48;100740.06;;;21.91;42.23
77583;BME280;66726;52.388;9.986;2023-07-20T12:34:22;100733.06;;;21.95;42.11
77583;BME280;66726;52.388;9.986;2023-07-20T12:36:54;100737.56;;;21.90;42.36
77583;BME280;66726;52.388;9.986;2023-07-20T12:39:26;100740.13;;;21.85;41.95
77583;BME280;66726;52.388;9.986;2023-07-20T12:41:58;100745.75;;;21.71;43.36
77583;BME280;66726;52.388;9.986;2023-07-20T12:44:30;100745.19;;;21.69;42.66
77583;BME280;66726;52.388;9.986;2023-07-20T12:47:02;100730.97;;;21.67;42.79
77583;BME280;66726;52.388;9.986;2023-07-20T12:49:35;100735.81;;;21.65;42.66
77583;BME280;66726;52.388;9.986;2023-07-20T12:52:06;100736.84;;;21.64;43.56
77583;BME280;66726;52.388;9.986;2023-07-20T12:54:39;100736.66;;;21.66;43.70
77583;BME280;66726;52.388;9.986;2023-07-20T12:57:11;100732.81;;;21.55;43.58
77583;BME280;66726;52.388;9.986;2023-07-20T12:59:42;100735.13;;;21.82;43.16
77583;BME280;66726;52.388;9.986;2023-07-20T13:02:16;100732.97;;;22.02;42.99
77583;BME280;66726;52.388;9.986;2023-07-20T13:04:49;100723.34;;;21.99;41.12
77583;BME280;66726;52.388;9.986;2023-07-20T13:07:32;100721.69;;;22.10;41.77
77583;BME280;66726;52.388;9.986;2023-07-20T13:10:09;100719.44;;;22.07;40.29
77583;BME280;66726;52.388;9.986;2023-07-20T13:12:42;100722.78;;;22.09;41.92
77583;BME280;66726;52.388;9.986;2023-07-20T13:15:15;100719.44;;;22.07;41.15
77583;BME280;66726;52.388;9.986;2023-07-20T13:17:47;100731.19;;;22.07;40.01
77583;BME280;66726;52.388;9.986;2023-07-20T13:20:20;100724.19;;;22.23;40.07
77583;BME280;66726;52.388;9.986;2023-07-20T13:22:52;100723.94;;;22.13;41.18
77583;BME280;66726;52.388;9.986;2023-07-20T13:25:24;100734.84;;;22.13;41.25